Flight Track Log - Related Links

Times and Time Zones

All times are in EDT time to prevent confusion due to time zone crossing. See the UCA4838 flight status page for this flight to view local times or setup timezone preferences in your user account.

Time Position Orientation Groundspeed Altitude Reporting Facility
EDT Latitude Longitude Course Direction KTS MPH feet Rate Location/Type
Sun 04:34:56 PM 40.6500 -74.1667 246° West 143 165 1,300  Level New York TRACON
Sun 04:35:56 PM 40.6333 -74.2167 246° West 169 194 2,300 1,143 Climbing New York TRACON
Sun 04:37:02 PM 40.6500 -74.2833 288° West 175 201 3,700 1,333 Climbing New York TRACON
Sun 04:38:02 PM 40.6500 -74.3500 270° West 168 193 5,100 1,500 Climbing New York TRACON
Sun 04:39:00 PM 40.5167 -74.6428 270° West  Level FlightAware Approximate
Sun 04:39:02 PM 40.6333 -74.4000 246° West 155 178 6,700  Level New York TRACON
Sun 04:40:00 PM 40.4972 -74.7251 246° West  Level FlightAware Approximate
Sun 04:41:14 PM 40.5944 -74.5017 243° Southwest 150 173 9,400  Level New York Center
Sun 04:42:14 PM 40.5783 -74.5472 245° Southwest 150 173 10,400 992 Climbing New York Center
Sun 04:43:15 PM 40.5622 -74.5928 245° Southwest 158 182 11,400 1,109 Climbing New York Center
Sun 04:44:13 PM 40.5417 -74.6464 243° Southwest 152 175 12,600 1,109 Climbing New York Center
Sun 04:45:14 PM 40.5258 -74.6889 244° Southwest 152 175 13,600 694 Climbing New York Center
Sun 04:46:14 PM 40.5050 -74.7478 245° Southwest 152 175 14,000 198 Climbing New York Center
Sun 04:47:15 PM 40.4800 -74.8064 241° Southwest 182 209 14,000  Level New York Center
Sun 04:48:15 PM 40.4547 -74.8814 246° West 202 232 14,000  Level New York Center
Sun 04:49:13 PM 40.4269 -74.9533 243° Southwest 220 253 14,000  Level New York Center
Sun 04:50:14 PM 40.3914 -75.0167 234° Southwest 220 253 14,000  Level New York Center
Sun 04:51:14 PM 40.3519 -75.0686 225° Southwest 227 261 14,000 -50 Level New York Center
Sun 04:52:15 PM 40.3103 -75.1286 228° Southwest 227 261 13,900 -50 Descending New York Center
Sun 04:53:15 PM 40.2619 -75.1936 226° Southwest 227 261 13,900  Level New York Center
Sun 04:54:16 PM 40.2181 -75.2533 226° Southwest 227 261 13,900  Level New York Center
Sun 04:55:13 PM 40.1783 -75.3106 228° Southwest 234 269 13,900  Level New York Center
Sun 04:56:13 PM 40.1319 -75.3753 227° Southwest 234 269 13,900  Level New York Center
Sun 04:57:14 PM 40.0925 -75.4297 227° Southwest 234 269 13,900  Level New York Center
Sun 04:58:14 PM 40.0458 -75.4972 228° Southwest 234 269 13,900  Level New York Center
Sun 04:59:15 PM 40.0064 -75.5486 225° Southwest 234 269 13,900  Level New York Center
Sun 05:00:16 PM 39.9578 -75.6158 227° Southwest 234 269 13,900  Level New York Center
Sun 05:01:13 PM 39.9181 -75.6697 226° Southwest 234 269 13,900 -102 Level New York Center
Sun 05:02:14 PM 39.8794 -75.7456 236° Southwest 234 269 13,700 -496 Descending New York Center
Sun 05:03:14 PM 39.8453 -75.8108 236° Southwest 239 275 12,900 -843 Descending New York Center
Sun 05:04:15 PM 39.8000 -75.8939 235° Southwest 252 290 12,000 -610 Descending New York Center
Sun 05:06:21 PM 39.7167 -76.0500 235° Southwest 239 275 11,000 -323 Descending Potomac TRACON
Sun 05:07:21 PM 39.6833 -76.1167 237° Southwest 229 264 11,000 -450 Level Potomac TRACON
Sun 05:08:21 PM 39.6500 -76.1833 237° Southwest 237 273 10,100 -1,133 Descending Potomac TRACON
Sun 05:10:21 PM 39.5667 -76.3333 234° Southwest 255 293 7,600 -1,167 Descending Potomac TRACON
Sun 05:11:21 PM 39.5000 -76.3667 201° Southwest 250 288 6,600 -1,000 Descending Potomac TRACON
Sun 05:12:21 PM 39.4500 -76.4167 218° Southwest 247 284 5,600 -900 Descending Potomac TRACON
Sun 05:13:21 PM 39.3667 -76.4000 171° South 262 302 4,800 -750 Descending Potomac TRACON
Sun 05:14:21 PM 39.3000 -76.4000 180° South 251 289 4,100 -400 Descending Potomac TRACON
Sun 05:15:21 PM 39.2333 -76.3833 169° South 245 282 4,000 -250 Descending Potomac TRACON
Sun 05:16:21 PM 39.1667 -76.4000 191° South 231 266 3,600 -496 Descending Potomac TRACON
Sun 05:17:22 PM 39.1167 -76.4500 218° Southwest 233 268 3,000 -450 Descending Potomac TRACON
Sun 05:18:21 PM 39.1167 -76.5167 270° West 200 230 2,700 -579 Descending Potomac TRACON
Sun 05:19:16 PM 39.1167 -76.5667 270° West 159 183 1,900 -843 Descending Potomac TRACON
Sun 05:20:22 PM 39.1333 -76.6333 288° West 145 167 1,000 -818 Descending Potomac TRACON

Login

Don't have an account? Register now (free) for customized features, flight alerts, and more!